Time;durP1;ratioP1;P1;durP2;ratioP2;P2;SDS_P1;SDS_P2;PMS_P1;PMS_P2;Temp;Humidity;BMP_temperature;BMP_pressure;BME280_temperature;BME280_humidity;BME280_pressure;Samples;Min_cycle;Max_cycle;Signal;HPM_P1;HPM_P2
2023/07/05 00:00:51;;;;;;;;;;;15.50;99.90;;;;;;5020719;28;19936;-83
2023/07/05 00:03:19;;;;;;;;;;;15.50;99.90;;;;;;5003199;28;19913;-82
2023/07/05 00:05:52;;;;;;;;;;;15.50;99.90;;;;;;5021263;28;20781;-83
2023/07/05 00:08:23;;;;;;;;;;;15.40;99.90;;;;;;5021790;28;19925;-82
2023/07/05 00:10:50;;;;;;;;;;;15.40;99.90;;;;;;4999928;28;19921;-83
2023/07/05 00:13:18;;;;;;;;;;;15.50;99.90;;;;;;5000815;28;19909;-82
2023/07/05 00:15:49;;;;;;;;;;;15.50;99.90;;;;;;5022392;28;19917;-83
2023/07/05 00:18:18;;;;;;;;;;;15.60;99.90;;;;;;5004317;28;19917;-81
2023/07/05 00:20:43;;;;;;;;;;;15.60;99.90;;;;;;5021566;28;19913;-82
2023/07/05 00:23:09;;;;;;;;;;;15.50;99.90;;;;;;5021827;28;19955;-81
2023/07/05 00:25:35;;;;;;;;;;;15.60;99.90;;;;;;5016623;28;19921;-81
2023/07/05 00:28:01;;;;;;;;;;;15.60;99.90;;;;;;5000071;28;19921;-80
2023/07/05 00:30:27;;;;;;;;;;;15.60;99.90;;;;;;5021057;28;19924;-81
2023/07/05 00:32:53;;;;;;;;;;;15.60;99.90;;;;;;5036469;28;19921;-82
2023/07/05 00:35:18;;;;;;;;;;;15.60;99.90;;;;;;5001879;28;19921;-81
2023/07/05 00:37:47;;;;;;;;;;;15.60;99.90;;;;;;5022060;28;19916;-81
2023/07/05 00:40:21;;;;;;;;;;;15.60;99.90;;;;;;4997310;28;20717;-82
2023/07/05 00:42:46;;;;;;;;;;;15.60;99.90;;;;;;5022050;28;19917;-82
2023/07/05 00:45:14;;;;;;;;;;;15.60;99.90;;;;;;5000935;28;19920;-82
2023/07/05 00:47:44;;;;;;;;;;;15.50;99.90;;;;;;5015740;28;20388;-81
2023/07/05 00:50:21;;;;;;;;;;;15.50;99.90;;;;;;5021952;28;20380;-82
2023/07/05 00:52:47;;;;;;;;;;;15.50;99.90;;;;;;5004336;28;19916;-82
2023/07/05 00:55:13;;;;;;;;;;;15.50;99.90;;;;;;5015165;28;19913;-81
2023/07/05 00:57:42;;;;;;;;;;;15.50;99.90;;;;;;5020142;28;19958;-82
2023/07/05 01:00:12;;;;;;;;;;;15.50;99.90;;;;;;5019947;28;19917;-81
2023/07/05 01:02:39;;;;;;;;;;;15.50;99.90;;;;;;5022432;28;19917;-82
2023/07/05 01:05:05;;;;;;;;;;;15.50;99.90;;;;;;5020474;28;19995;-82
2023/07/05 01:07:32;;;;;;;;;;;15.50;99.90;;;;;;5019883;28;19917;-83
2023/07/05 01:09:57;;;;;;;;;;;15.60;99.90;;;;;;5016400;28;19917;-82
2023/07/05 01:12:26;;;;;;;;;;;15.50;99.90;;;;;;5003717;28;19968;-82
2023/07/05 01:15:07;;;;;;;;;;;15.60;99.90;;;;;;5018519;28;20297;-82
2023/07/05 01:17:58;;;;;;;;;;;15.60;99.90;;;;;;5019235;28;19930;-82
2023/07/05 01:20:37;;;;;;;;;;;15.60;99.90;;;;;;4993879;28;19917;-81
2023/07/05 01:23:05;;;;;;;;;;;15.60;99.90;;;;;;4996470;28;19913;-81
2023/07/05 01:25:35;;;;;;;;;;;15.60;99.90;;;;;;5023290;28;19920;-82
2023/07/05 01:28:04;;;;;;;;;;;15.60;99.90;;;;;;5039514;28;19921;-81
2023/07/05 01:30:29;;;;;;;;;;;15.60;99.90;;;;;;5024398;28;19923;-81
2023/07/05 01:33:28;;;;;;;;;;;15.60;99.90;;;;;;5006695;28;19913;-81
2023/07/05 01:36:01;;;;;;;;;;;15.60;99.90;;;;;;5003499;28;19916;-81
2023/07/05 01:38:30;;;;;;;;;;;15.60;99.90;;;;;;5003003;28;19967;-81
2023/07/05 01:41:06;;;;;;;;;;;15.60;99.90;;;;;;4998605;28;19912;-80
2023/07/05 01:43:36;;;;;;;;;;;15.60;99.90;;;;;;5024874;28;19913;-80
2023/07/05 01:46:06;;;;;;;;;;;15.60;99.90;;;;;;5014253;28;20000;-81
2023/07/05 01:48:53;;;;;;;;;;;15.60;99.90;;;;;;5053599;28;19921;-82
2023/07/05 01:51:28;;;;;;;;;;;15.60;99.90;;;;;;5052712;28;19948;-82
2023/07/05 01:54:16;;;;;;;;;;;15.60;99.90;;;;;;5019063;28;19925;-81
2023/07/05 01:56:53;;;;;;;;;;;15.60;99.90;;;;;;5025150;28;19912;-81
2023/07/05 01:59:23;;;;;;;;;;;15.60;99.90;;;;;;5006731;28;19971;-81
2023/07/05 02:01:50;;;;;;;;;;;15.60;99.90;;;;;;5001379;28;20433;-82
2023/07/05 02:04:16;;;;;;;;;;;15.60;99.90;;;;;;5025638;28;20019;-81
2023/07/05 02:06:43;;;;;;;;;;;15.60;99.90;;;;;;5023126;28;19913;-81
2023/07/05 02:09:08;;;;;;;;;;;15.60;99.90;;;;;;5039217;28;19932;-81
2023/07/05 02:11:37;;;;;;;;;;;15.60;99.90;;;;;;5025040;28;19909;-80
2023/07/05 02:14:05;;;;;;;;;;;15.60;99.90;;;;;;5002574;28;19917;-80
2023/07/05 02:16:31;;;;;;;;;;;15.70;99.90;;;;;;5002103;28;19959;-80
2023/07/05 02:18:56;;;;;;;;;;;15.70;99.90;;;;;;5001060;28;20272;-80
2023/07/05 02:21:25;;;;;;;;;;;15.70;99.90;;;;;;5025370;28;19924;-80
2023/07/05 02:23:50;;;;;;;;;;;15.80;99.90;;;;;;5024595;28;19916;-80
2023/07/05 02:26:19;;;;;;;;;;;15.80;99.90;;;;;;5006634;28;19913;-80
2023/07/05 02:28:49;;;;;;;;;;;15.80;99.90;;;;;;5002522;28;19962;-80
2023/07/05 02:31:15;;;;;;;;;;;15.80;99.90;;;;;;5039927;28;19917;-80
2023/07/05 02:33:44;;;;;;;;;;;15.80;99.90;;;;;;5006644;28;20423;-80
2023/07/05 02:36:10;;;;;;;;;;;15.70;99.90;;;;;;5023893;28;20112;-80
2023/07/05 02:38:36;;;;;;;;;;;15.70;99.90;;;;;;5002042;28;19913;-80
2023/07/05 02:41:02;;;;;;;;;;;15.80;99.90;;;;;;5024059;28;20560;-80
2023/07/05 02:43:30;;;;;;;;;;;15.80;99.90;;;;;;5002468;28;19912;-80
2023/07/05 02:45:56;;;;;;;;;;;15.70;99.90;;;;;;5023616;28;19919;-80
2023/07/05 02:48:23;;;;;;;;;;;15.70;99.90;;;;;;5039200;28;19917;-80
2023/07/05 02:50:48;;;;;;;;;;;15.70;99.90;;;;;;5000551;28;19924;-81
2023/07/05 02:53:14;;;;;;;;;;;15.70;99.90;;;;;;5024495;28;19925;-80
2023/07/05 02:55:39;;;;;;;;;;;15.60;99.90;;;;;;5002616;28;20352;-80
2023/07/05 02:58:05;;;;;;;;;;;15.60;99.90;;;;;;5001688;28;20043;-80
2023/07/05 03:00:34;;;;;;;;;;;15.50;99.90;;;;;;5000458;28;19987;-81
2023/07/05 03:02:59;;;;;;;;;;;15.50;99.90;;;;;;5023462;28;19917;-80
2023/07/05 03:05:25;;;;;;;;;;;15.50;99.90;;;;;;5021227;28;19986;-80
2023/07/05 03:07:51;;;;;;;;;;;15.40;99.90;;;;;;5023670;28;19921;-80
2023/07/05 03:10:16;;;;;;;;;;;15.40;99.90;;;;;;5003097;28;19913;-81
2023/07/05 03:12:42;;;;;;;;;;;15.30;99.90;;;;;;5025323;28;19913;-81
2023/07/05 03:15:10;;;;;;;;;;;15.20;99.90;;;;;;5023283;28;19913;-80
2023/07/05 03:17:39;;;;;;;;;;;15.10;99.90;;;;;;5006278;28;20415;-80
2023/07/05 03:20:05;;;;;;;;;;;14.90;99.90;;;;;;5005228;28;19909;-81
2023/07/05 03:22:30;;;;;;;;;;;14.70;99.90;;;;;;5023780;28;19913;-80
2023/07/05 03:24:56;;;;;;;;;;;14.60;99.90;;;;;;5022790;28;20035;-80
2023/07/05 03:27:21;;;;;;;;;;;14.50;99.90;;;;;;5005213;28;19910;-80
2023/07/05 03:29:49;;;;;;;;;;;14.50;99.90;;;;;;5004828;28;19917;-81
2023/07/05 03:32:20;;;;;;;;;;;14.40;99.90;;;;;;5021636;28;19962;-79
2023/07/05 03:34:46;;;;;;;;;;;14.40;99.90;;;;;;5005912;28;19917;-80
2023/07/05 03:37:13;;;;;;;;;;;14.30;99.90;;;;;;5005638;28;19913;-80
2023/07/05 03:39:44;;;;;;;;;;;14.30;99.90;;;;;;5005615;28;19966;-80
2023/07/05 03:42:12;;;;;;;;;;;14.30;99.90;;;;;;5002826;28;19958;-79
2023/07/05 03:44:40;;;;;;;;;;;14.30;99.90;;;;;;5022175;28;19917;-80
2023/07/05 03:47:06;;;;;;;;;;;14.20;99.90;;;;;;5022101;28;19987;-80
2023/07/05 03:49:34;;;;;;;;;;;14.20;99.90;;;;;;5022462;28;19920;-79
2023/07/05 03:52:00;;;;;;;;;;;14.10;99.90;;;;;;5004512;28;20475;-81
2023/07/05 03:54:25;;;;;;;;;;;14.00;99.90;;;;;;5022784;28;19924;-79
2023/07/05 03:56:52;;;;;;;;;;;13.90;99.90;;;;;;5003723;28;19982;-79
2023/07/05 03:59:19;;;;;;;;;;;13.90;99.90;;;;;;5022578;28;19920;-79
2023/07/05 04:01:45;;;;;;;;;;;13.90;99.90;;;;;;5022847;28;19979;-79
2023/07/05 04:04:13;;;;;;;;;;;13.90;99.90;;;;;;5000395;28;20368;-79
2023/07/05 04:06:39;;;;;;;;;;;13.90;99.90;;;;;;5022665;28;20347;-79
2023/07/05 04:09:07;;;;;;;;;;;13.90;99.90;;;;;;5022623;28;19921;-79
2023/07/05 04:11:39;;;;;;;;;;;13.80;99.90;;;;;;5004902;28;19940;-79
2023/07/05 04:14:11;;;;;;;;;;;13.80;99.90;;;;;;5000410;28;19924;-79
2023/07/05 04:16:40;;;;;;;;;;;13.80;99.90;;;;;;5006854;28;19957;-79
2023/07/05 04:19:05;;;;;;;;;;;13.70;99.90;;;;;;5021359;28;19908;-79
2023/07/05 04:21:31;;;;;;;;;;;13.70;99.90;;;;;;5021664;28;20230;-79
2023/07/05 04:24:03;;;;;;;;;;;13.70;99.90;;;;;;5021297;28;19916;-79
2023/07/05 04:26:36;;;;;;;;;;;13.70;99.90;;;;;;5022924;28;22309;-79
2023/07/05 04:29:04;;;;;;;;;;;13.70;99.90;;;;;;5036135;28;19928;-79
2023/07/05 04:31:31;;;;;;;;;;;13.70;99.90;;;;;;5021250;28;20273;-80
2023/07/05 04:34:00;;;;;;;;;;;13.70;99.90;;;;;;5021913;28;20038;-79
2023/07/05 04:36:37;;;;;;;;;;;13.70;99.90;;;;;;5022719;28;20300;-79
2023/07/05 04:39:11;;;;;;;;;;;13.70;99.90;;;;;;5036591;28;19919;-79
2023/07/05 04:41:40;;;;;;;;;;;13.70;99.90;;;;;;5004291;28;19909;-79
2023/07/05 04:44:12;;;;;;;;;;;13.70;99.90;;;;;;4999745;28;20094;-80
2023/07/05 04:46:37;;;;;;;;;;;13.70;99.90;;;;;;5004387;28;19913;-79
2023/07/05 04:49:05;;;;;;;;;;;13.70;99.90;;;;;;4998747;28;19922;-79
2023/07/05 04:51:44;;;;;;;;;;;13.80;99.90;;;;;;5022572;28;19954;-79
2023/07/05 04:54:09;;;;;;;;;;;13.80;99.90;;;;;;5020037;28;19925;-79
2023/07/05 04:56:38;;;;;;;;;;;13.90;99.90;;;;;;4999737;28;19924;-79
2023/07/05 04:59:04;;;;;;;;;;;13.90;99.90;;;;;;5003450;28;19913;-79
2023/07/05 05:01:29;;;;;;;;;;;13.90;99.90;;;;;;5000249;28;19916;-79
2023/07/05 05:03:58;;;;;;;;;;;13.90;99.90;;;;;;5021299;28;19924;-80
2023/07/05 05:06:28;;;;;;;;;;;14.00;99.90;;;;;;5019101;28;19913;-79
2023/07/05 05:08:59;;;;;;;;;;;14.00;99.90;;;;;;4997351;28;22268;-79
2023/07/05 05:11:32;;;;;;;;;;;14.10;99.90;;;;;;5015304;28;19913;-79
2023/07/05 05:14:08;;;;;;;;;;;14.20;99.90;;;;;;4998612;28;19917;-79
2023/07/05 05:16:36;;;;;;;;;;;14.20;99.90;;;;;;5017616;28;19917;-79
2023/07/05 05:19:09;;;;;;;;;;;14.30;99.90;;;;;;4999080;28;19924;-79
2023/07/05 05:21:35;;;;;;;;;;;14.30;99.90;;;;;;4999629;28;19928;-78
2023/07/05 05:24:03;;;;;;;;;;;14.40;99.90;;;;;;5021162;28;19913;-79
2023/07/05 05:26:29;;;;;;;;;;;14.50;99.90;;;;;;5035648;28;19919;-79
2023/07/05 05:28:56;;;;;;;;;;;14.60;99.90;;;;;;4999122;28;19925;-79
2023/07/05 05:31:21;;;;;;;;;;;14.70;99.90;;;;;;5005511;28;19909;-79
2023/07/05 05:33:50;;;;;;;;;;;14.70;99.90;;;;;;5004612;28;19913;-80
2023/07/05 05:36:16;;;;;;;;;;;14.70;99.90;;;;;;4998339;28;19913;-79
2023/07/05 05:38:41;;;;;;;;;;;14.90;99.90;;;;;;5003996;28;19915;-79
2023/07/05 05:41:09;;;;;;;;;;;14.90;99.90;;;;;;4997518;28;19913;-79
2023/07/05 05:43:34;;;;;;;;;;;14.80;99.90;;;;;;5021566;28;19959;-79
2023/07/05 05:46:03;;;;;;;;;;;14.90;99.90;;;;;;5003546;28;19917;-79
2023/07/05 05:48:28;;;;;;;;;;;14.80;99.90;;;;;;4998320;28;22252;-81
2023/07/05 05:50:54;;;;;;;;;;;14.90;99.90;;;;;;5018973;28;19960;-79
2023/07/05 05:53:19;;;;;;;;;;;14.90;99.90;;;;;;5004576;28;20019;-79
2023/07/05 05:55:45;;;;;;;;;;;15.00;99.90;;;;;;4999538;28;19928;-81
2023/07/05 05:58:11;;;;;;;;;;;15.10;99.90;;;;;;4999092;28;20400;-80
2023/07/05 06:00:37;;;;;;;;;;;15.10;99.90;;;;;;4997125;28;19992;-79
2023/07/05 06:03:03;;;;;;;;;;;15.10;99.90;;;;;;5021357;28;20015;-79
2023/07/05 06:05:28;;;;;;;;;;;15.10;99.90;;;;;;4998253;28;19972;-79
2023/07/05 06:07:54;;;;;;;;;;;15.00;99.90;;;;;;5018343;28;19932;-80
2023/07/05 06:10:24;;;;;;;;;;;14.80;99.90;;;;;;4999857;28;19924;-80
2023/07/05 06:12:49;;;;;;;;;;;14.70;99.90;;;;;;5004276;28;19921;-79
2023/07/05 06:15:18;;;;;;;;;;;14.70;99.90;;;;;;5024898;28;19917;-81
2023/07/05 06:17:43;;;;;;;;;;;14.70;99.90;;;;;;5040187;28;19909;-79
2023/07/05 06:20:10;;;;;;;;;;;14.70;99.90;;;;;;5023469;28;20360;-79
2023/07/05 06:22:36;;;;;;;;;;;14.80;99.90;;;;;;5023476;28;19917;-78
2023/07/05 06:25:02;;;;;;;;;;;15.00;99.90;;;;;;5007097;28;19913;-79
2023/07/05 06:27:27;;;;;;;;;;;15.10;99.90;;;;;;5039406;28;19909;-80
2023/07/05 06:29:53;;;;;;;;;;;15.10;99.90;;;;;;5000942;28;19921;-79
2023/07/05 06:32:18;;;;;;;;;;;15.10;99.90;;;;;;5000455;28;20155;-79
2023/07/05 06:34:45;;;;;;;;;;;15.00;99.90;;;;;;5024618;28;19917;-79
2023/07/05 06:37:11;;;;;;;;;;;15.00;99.90;;;;;;5000103;28;19916;-80
2023/07/05 06:39:37;;;;;;;;;;;14.80;99.90;;;;;;5023663;28;19918;-80
2023/07/05 06:42:03;;;;;;;;;;;14.60;99.90;;;;;;5002548;28;19958;-79
2023/07/05 06:44:29;;;;;;;;;;;14.40;99.90;;;;;;5006208;28;19920;-80
2023/07/05 06:46:57;;;;;;;;;;;14.20;99.90;;;;;;5023925;28;22315;-80
2023/07/05 06:49:23;;;;;;;;;;;13.90;99.90;;;;;;5021015;28;19920;-80
2023/07/05 06:51:53;;;;;;;;;;;13.70;99.90;;;;;;5023269;28;19928;-79
2023/07/05 06:54:19;;;;;;;;;;;13.60;99.90;;;;;;5001970;28;19928;-79
2023/07/05 06:56:46;;;;;;;;;;;13.50;99.90;;;;;;5022717;28;20377;-80
2023/07/05 06:59:14;;;;;;;;;;;13.40;99.90;;;;;;5024374;28;20022;-79
2023/07/05 07:01:39;;;;;;;;;;;13.30;99.90;;;;;;5022686;28;19917;-77
2023/07/05 07:04:09;;;;;;;;;;;13.10;99.90;;;;;;5023225;28;20024;-79
2023/07/05 07:06:37;;;;;;;;;;;13.00;99.90;;;;;;4998397;28;20289;-79
2023/07/05 07:09:04;;;;;;;;;;;12.80;99.90;;;;;;5037819;28;19995;-79
2023/07/05 07:11:33;;;;;;;;;;;12.80;99.90;;;;;;5022451;28;19921;-79
2023/07/05 07:14:01;;;;;;;;;;;12.80;99.90;;;;;;5004148;28;19921;-78
2023/07/05 07:16:30;;;;;;;;;;;12.80;99.90;;;;;;5000576;28;20000;-78
2023/07/05 07:19:00;;;;;;;;;;;12.70;99.90;;;;;;5021308;28;19918;-80
2023/07/05 07:21:25;;;;;;;;;;;12.70;99.90;;;;;;5006051;28;19908;-78
2023/07/05 07:23:51;;;;;;;;;;;12.70;99.90;;;;;;5037375;28;19920;-79
2023/07/05 07:26:24;;;;;;;;;;;12.60;99.90;;;;;;5000434;28;19913;-79
2023/07/05 07:28:57;;;;;;;;;;;12.60;99.90;;;;;;5019272;28;19914;-79
2023/07/05 07:31:29;;;;;;;;;;;12.60;99.90;;;;;;4998932;28;19924;-79
2023/07/05 07:33:55;;;;;;;;;;;12.60;99.90;;;;;;5004492;28;20110;-78
2023/07/05 07:36:27;;;;;;;;;;;12.60;99.90;;;;;;5022449;28;19913;-78
2023/07/05 07:38:54;;;;;;;;;;;12.70;99.90;;;;;;5022409;28;20028;-79
2023/07/05 07:41:27;;;;;;;;;;;12.80;99.90;;;;;;5020982;28;19984;-78
2023/07/05 07:44:00;;;;;;;;;;;12.80;99.90;;;;;;5021890;28;20392;-78
2023/07/05 07:46:30;;;;;;;;;;;12.90;99.90;;;;;;4998681;28;19913;-78
2023/07/05 07:48:59;;;;;;;;;;;13.00;99.90;;;;;;5021887;28;19914;-78
2023/07/05 07:51:33;;;;;;;;;;;13.20;99.90;;;;;;5022505;28;19913;-77
2023/07/05 07:54:13;;;;;;;;;;;13.20;99.90;;;;;;5013107;28;19917;-77
2023/07/05 07:56:47;;;;;;;;;;;13.20;99.90;;;;;;5002940;28;19910;-80
2023/07/05 07:59:19;;;;;;;;;;;13.20;99.90;;;;;;5003432;28;19924;-78
2023/07/05 08:01:45;;;;;;;;;;;13.10;99.90;;;;;;5003413;28;19909;-78
2023/07/05 08:04:17;;;;;;;;;;;13.10;99.90;;;;;;4984889;28;19924;-78
2023/07/05 08:06:48;;;;;;;;;;;13.00;99.90;;;;;;5020406;28;20301;-78
2023/07/05 08:09:30;;;;;;;;;;;13.00;99.90;;;;;;4986015;28;19948;-78
2023/07/05 08:12:00;;;;;;;;;;;13.00;99.90;;;;;;5000907;28;19940;-79
2023/07/05 08:14:30;;;;;;;;;;;13.00;99.90;;;;;;4986282;28;19914;-80
2023/07/05 08:17:03;;;;;;;;;;;12.90;99.90;;;;;;5018116;28;20003;-80
2023/07/05 08:19:34;;;;;;;;;;;12.90;99.90;;;;;;4979797;28;19959;-81
2023/07/05 08:22:06;;;;;;;;;;;12.80;99.90;;;;;;4981256;28;19913;-80
2023/07/05 08:24:38;;;;;;;;;;;12.80;99.90;;;;;;5018745;28;19964;-79
2023/07/05 08:27:07;;;;;;;;;;;12.80;99.90;;;;;;5002568;28;19909;-80
2023/07/05 08:29:34;;;;;;;;;;;12.80;99.90;;;;;;5019345;28;20015;-81
2023/07/05 08:31:59;;;;;;;;;;;12.90;99.90;;;;;;4986015;28;20455;-80
2023/07/05 08:34:32;;;;;;;;;;;12.90;99.90;;;;;;4980379;28;19920;-79
2023/07/05 08:37:07;;;;;;;;;;;12.90;99.90;;;;;;5002697;28;19971;-80
2023/07/05 08:39:38;;;;;;;;;;;13.00;99.90;;;;;;5004775;28;19968;-80
2023/07/05 08:42:09;;;;;;;;;;;13.10;99.90;;;;;;5002066;28;19918;-80
2023/07/05 08:44:41;;;;;;;;;;;13.30;99.90;;;;;;5021558;28;19967;-80
2023/07/05 08:47:28;;;;;;;;;;;13.50;99.90;;;;;;4978038;28;20458;-80
2023/07/05 08:50:10;;;;;;;;;;;13.70;99.90;;;;;;5018901;28;19920;-79
2023/07/05 08:52:45;;;;;;;;;;;14.00;99.90;;;;;;5002124;28;19921;-79
2023/07/05 08:55:13;;;;;;;;;;;14.20;99.90;;;;;;5020378;28;20012;-80
2023/07/05 08:57:43;;;;;;;;;;;14.40;99.90;;;;;;5023378;28;19949;-80
2023/07/05 09:00:13;;;;;;;;;;;14.50;99.90;;;;;;5033234;28;19979;-78
2023/07/05 09:02:39;;;;;;;;;;;14.60;99.90;;;;;;5014471;28;19919;-78
2023/07/05 09:05:16;;;;;;;;;;;14.80;99.90;;;;;;5036839;28;19920;-78
2023/07/05 09:08:01;;;;;;;;;;;15.00;99.90;;;;;;5016460;28;20059;-79
2023/07/05 09:10:28;;;;;;;;;;;15.10;99.90;;;;;;5009442;28;19920;-79
2023/07/05 09:13:04;;;;;;;;;;;15.00;99.90;;;;;;5038734;28;19913;-79
2023/07/05 09:15:36;;;;;;;;;;;14.80;99.90;;;;;;4998617;28;19923;-78
2023/07/05 09:18:20;;;;;;;;;;;14.60;99.90;;;;;;5019929;28;20395;-79
2023/07/05 09:20:54;;;;;;;;;;;14.60;99.90;;;;;;4997180;28;20273;-79
2023/07/05 09:23:33;;;;;;;;;;;14.60;99.90;;;;;;5037037;28;19970;-79
2023/07/05 09:26:27;;;;;;;;;;;14.70;99.90;;;;;;4998929;28;19913;-80
2023/07/05 09:29:08;;;;;;;;;;;14.70;99.90;;;;;;5022128;28;20015;-79
2023/07/05 09:31:37;;;;;;;;;;;14.80;99.90;;;;;;5020445;28;19967;-78
2023/07/05 09:34:22;;;;;;;;;;;14.80;99.90;;;;;;5003815;28;19920;-80
2023/07/05 09:36:48;;;;;;;;;;;14.90;99.90;;;;;;5036405;28;19913;-80
2023/07/05 09:39:32;;;;;;;;;;;15.10;99.90;;;;;;5020069;28;19913;-79
2023/07/05 09:42:03;;;;;;;;;;;15.10;99.90;;;;;;5036787;28;19936;-79
2023/07/05 09:44:34;;;;;;;;;;;15.10;99.90;;;;;;5022347;28;19917;-79
2023/07/05 09:47:05;;;;;;;;;;;15.20;99.90;;;;;;5019290;28;19921;-79
2023/07/05 09:49:31;;;;;;;;;;;15.20;99.90;;;;;;5025319;28;20328;-79
2023/07/05 09:52:00;;;;;;;;;;;15.30;99.90;;;;;;5021669;28;19924;-79
2023/07/05 09:54:31;;;;;;;;;;;15.30;99.90;;;;;;5002969;28;19917;-79
2023/07/05 09:57:06;;;;;;;;;;;15.30;99.90;;;;;;5025287;28;20397;-79
2023/07/05 09:59:36;;;;;;;;;;;15.00;99.90;;;;;;5001853;28;19913;-79
2023/07/05 10:02:16;;;;;;;;;;;14.80;99.90;;;;;;5040223;28;19909;-80
2023/07/05 10:04:48;;;;;;;;;;;14.40;99.90;;;;;;5025023;28;19916;-80
2023/07/05 10:07:19;;;;;;;;;;;14.10;99.90;;;;;;5000449;28;19917;-80
2023/07/05 10:10:06;;;;;;;;;;;13.90;99.90;;;;;;5024875;28;19917;-81
2023/07/05 10:12:35;;;;;;;;;;;13.80;99.90;;;;;;5002811;28;19920;-83
2023/07/05 10:15:19;;;;;;;;;;;13.60;99.90;;;;;;5025914;28;20315;-84
2023/07/05 10:17:45;;;;;;;;;;;13.60;99.90;;;;;;5004206;28;19975;-83
2023/07/05 10:20:23;;;;;;;;;;;13.60;99.90;;;;;;5006797;28;19917;-83
2023/07/05 10:22:56;;;;;;;;;;;13.50;99.90;;;;;;5020690;28;19920;-83
2023/07/05 10:25:23;;;;;;;;;;;13.50;99.90;;;;;;5023990;28;19996;-83
2023/07/05 10:27:49;;;;;;;;;;;13.50;99.90;;;;;;5040189;28;20399;-83
2023/07/05 10:30:19;;;;;;;;;;;13.50;99.90;;;;;;5007314;28;22287;-83
2023/07/05 10:33:05;;;;;;;;;;;13.60;99.90;;;;;;5023404;28;19912;-84
2023/07/05 10:35:36;;;;;;;;;;;13.60;99.90;;;;;;5000927;28;19917;-83
2023/07/05 10:38:17;;;;;;;;;;;13.60;99.90;;;;;;5018748;28;20408;-83
2023/07/05 10:40:51;;;;;;;;;;;13.70;99.90;;;;;;5038341;28;20264;-84
2023/07/05 10:43:17;;;;;;;;;;;13.80;99.90;;;;;;5024261;28;19920;-83
2023/07/05 10:45:45;;;;;;;;;;;13.90;99.90;;;;;;5038507;28;19912;-81
2023/07/05 10:48:40;;;;;;;;;;;14.00;99.90;;;;;;5023259;28;19971;-81
2023/07/05 10:51:17;;;;;;;;;;;14.30;99.90;;;;;;5023367;28;20329;-82
2023/07/05 10:53:47;;;;;;;;;;;14.50;99.90;;;;;;5001500;28;19952;-81
2023/07/05 10:56:20;;;;;;;;;;;14.80;99.90;;;;;;5023406;28;20276;-81
2023/07/05 10:59:09;;;;;;;;;;;15.00;99.90;;;;;;5022843;28;20008;-82
2023/07/05 11:01:42;;;;;;;;;;;15.10;99.90;;;;;;5022034;28;20395;-81
2023/07/05 11:04:18;;;;;;;;;;;15.20;99.90;;;;;;5023167;28;19956;-80
2023/07/05 11:06:48;;;;;;;;;;;15.40;99.90;;;;;;5023810;28;19917;-81
2023/07/05 11:09:13;;;;;;;;;;;15.60;99.90;;;;;;5005372;28;19919;-80
2023/07/05 11:11:41;;;;;;;;;;;16.00;99.90;;;;;;5038750;28;20237;-81
2023/07/05 11:14:12;;;;;;;;;;;16.40;99.90;;;;;;5023688;28;20275;-80
2023/07/05 11:16:43;;;;;;;;;;;17.10;99.90;;;;;;5023921;28;19928;-80
2023/07/05 11:19:28;;;;;;;;;;;17.30;99.90;;;;;;5025149;28;19916;-80
2023/07/05 11:21:58;;;;;;;;;;;17.00;99.90;;;;;;5023008;28;19913;-80
2023/07/05 11:24:40;;;;;;;;;;;16.80;99.90;;;;;;5024187;28;19936;-81
2023/07/05 11:27:24;;;;;;;;;;;17.00;99.90;;;;;;5004516;28;20007;-80
2023/07/05 11:29:57;;;;;;;;;;;17.50;99.90;;;;;;4996593;28;19967;-81
2023/07/05 11:32:26;;;;;;;;;;;18.10;99.90;;;;;;5005443;28;19921;-81
2023/07/05 11:34:53;;;;;;;;;;;18.40;99.90;;;;;;4999605;28;19916;-79
2023/07/05 11:37:38;;;;;;;;;;;19.00;99.90;;;;;;5022666;28;19920;-81
2023/07/05 11:40:27;;;;;;;;;;;19.40;99.90;;;;;;5035989;28;20358;-81
2023/07/05 11:42:52;;;;;;;;;;;19.60;99.90;;;;;;5003828;28;19909;-81
2023/07/05 11:45:21;;;;;;;;;;;19.60;99.90;;;;;;5000857;28;19963;-80
2023/07/05 11:47:55;;;;;;;;;;;19.70;99.90;;;;;;5001199;28;19924;-81
2023/07/05 11:50:22;;;;;;;;;;;19.90;99.90;;;;;;5000447;28;19948;-80
2023/07/05 11:52:56;;;;;;;;;;;19.90;99.90;;;;;;5004724;28;19956;-81
2023/07/05 11:55:26;;;;;;;;;;;20.00;99.90;;;;;;5022248;28;20056;-80
2023/07/05 11:57:58;;;;;;;;;;;20.10;99.90;;;;;;5017988;28;19909;-81
2023/07/05 12:00:28;;;;;;;;;;;20.20;99.90;;;;;;4997260;28;19909;-81
2023/07/05 12:02:57;;;;;;;;;;;20.10;99.90;;;;;;5021963;28;19952;-81
2023/07/05 12:05:28;;;;;;;;;;;19.90;99.90;;;;;;5000314;28;20399;-80
2023/07/05 12:08:13;;;;;;;;;;;20.30;99.90;;;;;;5020197;28;20365;-80
2023/07/05 12:10:41;;;;;;;;;;;20.90;99.90;;;;;;5002974;28;19917;-81
2023/07/05 12:13:18;;;;;;;;;;;21.10;99.90;;;;;;4999532;28;19909;-80
2023/07/05 12:15:47;;;;;;;;;;;20.70;99.90;;;;;;5035706;28;19955;-80
2023/07/05 12:18:14;;;;;;;;;;;20.00;99.90;;;;;;5023021;28;20003;-80
2023/07/05 12:20:45;;;;;;;;;;;19.40;99.90;;;;;;5021937;28;19949;-80
2023/07/05 12:23:15;;;;;;;;;;;18.60;99.90;;;;;;5020936;28;19952;-80
2023/07/05 12:25:52;;;;;;;;;;;17.90;99.90;;;;;;5022559;28;19916;-79
2023/07/05 12:28:21;;;;;;;;;;;17.50;99.90;;;;;;5021354;28;19924;-79
2023/07/05 12:30:47;;;;;;;;;;;17.40;99.90;;;;;;4998251;28;19998;-79
2023/07/05 12:33:19;;;;;;;;;;;17.20;99.90;;;;;;5001693;28;20577;-78
2023/07/05 12:35:50;;;;;;;;;;;17.10;99.90;;;;;;5020586;28;19947;-78
2023/07/05 12:38:18;;;;;;;;;;;17.00;99.90;;;;;;5000844;28;19936;-78
2023/07/05 12:40:48;;;;;;;;;;;17.00;99.90;;;;;;5021671;28;19919;-79
2023/07/05 12:43:21;;;;;;;;;;;16.90;99.90;;;;;;5020485;28;19944;-78
2023/07/05 12:45:48;;;;;;;;;;;16.60;99.90;;;;;;5036210;28;19996;-78
2023/07/05 12:48:15;;;;;;;;;;;16.50;99.90;;;;;;5015797;28;20040;-79
2023/07/05 12:50:46;;;;;;;;;;;16.40;99.90;;;;;;5020350;28;20003;-78
2023/07/05 12:53:35;;;;;;;;;;;16.20;99.90;;;;;;5028619;28;19929;-79
2023/07/05 12:56:09;;;;;;;;;;;16.10;99.90;;;;;;4998230;28;19913;-78
2023/07/05 12:58:39;;;;;;;;;;;16.00;99.90;;;;;;5004758;28;19936;-78
2023/07/05 13:01:11;;;;;;;;;;;15.70;99.90;;;;;;5020426;28;20038;-79
2023/07/05 13:03:44;;;;;;;;;;;15.60;99.90;;;;;;5035647;28;19996;-80
2023/07/05 13:06:22;;;;;;;;;;;15.30;99.90;;;;;;5001723;28;19917;-80
2023/07/05 13:08:56;;;;;;;;;;;15.30;99.90;;;;;;4997920;28;19921;-81
2023/07/05 13:11:30;;;;;;;;;;;15.70;99.90;;;;;;4998559;28;19968;-81
2023/07/05 13:13:57;;;;;;;;;;;16.50;99.90;;;;;;5019825;28;19995;-81
2023/07/05 13:16:27;;;;;;;;;;;16.80;99.90;;;;;;5021828;28;19931;-81
2023/07/05 13:19:03;;;;;;;;;;;16.80;99.90;;;;;;5003139;28;19952;-81
2023/07/05 13:21:49;;;;;;;;;;;17.40;99.90;;;;;;5000113;28;20304;-81
2023/07/05 13:24:38;;;;;;;;;;;18.10;99.90;;;;;;5024414;28;20007;-81
2023/07/05 13:27:13;;;;;;;;;;;18.80;99.90;;;;;;5006532;28;20044;-81
2023/07/05 13:29:42;;;;;;;;;;;19.00;99.90;;;;;;5021182;28;20585;-81
2023/07/05 13:32:46;;;;;;;;;;;18.90;99.90;;;;;;5022312;28;19936;-80
2023/07/05 13:35:12;;;;;;;;;;;18.80;99.90;;;;;;4995442;28;19928;-81
2023/07/05 13:37:39;;;;;;;;;;;18.80;99.90;;;;;;5024549;28;19948;-81
2023/07/05 13:40:11;;;;;;;;;;;18.50;99.90;;;;;;5024764;28;20397;-81
2023/07/05 13:42:48;;;;;;;;;;;18.20;99.90;;;;;;5003140;28;19917;-81
2023/07/05 13:45:21;;;;;;;;;;;18.00;99.90;;;;;;5002301;28;19909;-80
2023/07/05 13:47:50;;;;;;;;;;;18.00;99.90;;;;;;5022490;28;19947;-81
2023/07/05 13:50:16;;;;;;;;;;;18.00;99.90;;;;;;5001671;28;19917;-81
2023/07/05 13:52:42;;;;;;;;;;;18.00;99.90;;;;;;4999634;28;19921;-81
2023/07/05 13:55:18;;;;;;;;;;;18.10;99.90;;;;;;5019086;28;19920;-81
2023/07/05 13:57:54;;;;;;;;;;;18.10;99.90;;;;;;5006751;28;20261;-80
2023/07/05 14:00:20;;;;;;;;;;;18.00;99.90;;;;;;5024301;28;20422;-80
2023/07/05 14:02:49;;;;;;;;;;;17.90;99.90;;;;;;5023300;28;19913;-81
2023/07/05 14:05:15;;;;;;;;;;;17.90;99.90;;;;;;5002647;28;20019;-81
2023/07/05 14:07:41;;;;;;;;;;;18.00;99.90;;;;;;5022359;28;22279;-81
2023/07/05 14:10:07;;;;;;;;;;;17.90;99.90;;;;;;5000364;28;20402;-80
2023/07/05 14:12:35;;;;;;;;;;;17.80;99.90;;;;;;5007046;28;19917;-79
2023/07/05 14:15:02;;;;;;;;;;;17.80;99.90;;;;;;5001104;28;19925;-80
2023/07/05 14:17:32;;;;;;;;;;;17.80;99.90;;;;;;5024644;28;19917;-80
2023/07/05 14:19:59;;;;;;;;;;;17.70;99.90;;;;;;5001264;28;19999;-79
2023/07/05 14:22:25;;;;;;;;;;;17.70;99.90;;;;;;5017695;28;19913;-80
2023/07/05 14:24:53;;;;;;;;;;;17.60;99.90;;;;;;5001936;28;20280;-81
2023/07/05 14:27:20;;;;;;;;;;;17.50;99.90;;;;;;5001800;28;20008;-79
2023/07/05 14:29:47;;;;;;;;;;;17.40;99.90;;;;;;5005934;28;19913;-80
2023/07/05 14:32:13;;;;;;;;;;;17.40;99.90;;;;;;5020415;28;20011;-79
2023/07/05 14:34:40;;;;;;;;;;;17.30;99.90;;;;;;5023791;28;19936;-79